createdAt,value
2023-01-11T00:01:03.344Z,3.92
2023-01-11T00:03:31.830Z,2.00
2023-01-11T00:06:00.488Z,1.75
2023-01-11T00:08:29.637Z,1.58
2023-01-11T00:10:57.323Z,1.50
2023-01-11T00:13:24.944Z,2.03
2023-01-11T00:15:52.594Z,3.47
2023-01-11T00:18:20.360Z,2.70
2023-01-11T00:20:48.042Z,1.25
2023-01-11T00:23:15.753Z,1.77
2023-01-11T00:25:44.807Z,2.35
2023-01-11T00:28:12.401Z,3.40
2023-01-11T00:30:40.044Z,3.70
2023-01-11T00:33:07.700Z,1.90
2023-01-11T00:35:35.341Z,2.63
2023-01-11T00:38:02.992Z,5.15
2023-01-11T00:40:30.682Z,1.60
2023-01-11T00:43:17.249Z,3.13
2023-01-11T00:46:14.158Z,2.22
2023-01-11T00:48:41.864Z,0.90
2023-01-11T00:51:09.521Z,2.17
2023-01-11T00:53:37.114Z,2.22
2023-01-11T00:56:05.047Z,2.00
2023-01-11T00:58:34.023Z,1.45
2023-01-11T01:01:07.680Z,0.70
2023-01-11T01:03:35.448Z,1.85
2023-01-11T01:06:03.120Z,2.30
2023-01-11T01:08:30.698Z,0.95
2023-01-11T01:10:58.292Z,3.03
2023-01-11T01:13:43.687Z,1.42
2023-01-11T01:16:12.729Z,2.40
2023-01-11T01:18:40.376Z,1.60
2023-01-11T01:21:13.951Z,1.27
2023-01-11T01:23:41.657Z,2.22
2023-01-11T01:26:09.643Z,3.75
2023-01-11T01:28:37.442Z,2.92
2023-01-11T01:31:05.181Z,1.92
2023-01-11T01:33:36.579Z,1.95
2023-01-11T01:36:04.785Z,1.65
2023-01-11T01:38:33.104Z,2.63
2023-01-11T01:41:00.897Z,0.80
2023-01-11T01:43:47.862Z,1.80
2023-01-11T01:46:15.960Z,1.80
2023-01-11T01:48:47.859Z,1.65
2023-01-11T01:51:19.835Z,0.95
2023-01-11T01:53:50.513Z,1.60
2023-01-11T01:56:25.652Z,2.58
2023-01-11T01:58:56.652Z,2.15
2023-01-11T02:01:41.828Z,1.20
2023-01-11T02:04:13.839Z,1.90
2023-01-11T02:06:42.512Z,1.17
2023-01-11T02:09:17.225Z,1.67
2023-01-11T02:11:45.109Z,1.70
2023-01-11T02:14:17.548Z,1.60
2023-01-11T02:16:45.191Z,1.20
2023-01-11T02:19:28.542Z,1.73
2023-01-11T02:22:14.275Z,1.17
2023-01-11T02:25:13.987Z,2.80
2023-01-11T02:27:56.282Z,1.27
2023-01-11T02:30:29.678Z,2.92
2023-01-11T02:33:05.217Z,1.90
2023-01-11T02:35:45.133Z,2.25
2023-01-11T02:38:21.420Z,2.28
2023-01-11T02:40:56.195Z,1.83
2023-01-11T02:43:48.622Z,0.98
2023-01-11T02:46:21.286Z,2.63
2023-01-11T02:48:54.218Z,0.68
2023-01-11T02:51:28.068Z,2.00
2023-01-11T02:53:58.004Z,0.95
2023-01-11T02:56:28.512Z,2.22
2023-01-11T02:59:00.788Z,1.95
2023-01-11T03:01:28.502Z,1.92
2023-01-11T03:03:56.289Z,2.03
2023-01-11T03:06:27.008Z,1.08
2023-01-11T03:09:10.888Z,1.90
2023-01-11T03:12:08.708Z,1.45
2023-01-11T03:14:46.305Z,1.13
2023-01-11T03:17:28.124Z,1.88
2023-01-11T03:20:02.551Z,3.63
2023-01-11T03:22:39.965Z,1.33
2023-01-11T03:25:17.153Z,2.25
2023-01-11T03:27:53.082Z,1.10
2023-01-11T03:30:27.245Z,0.93
2023-01-11T03:33:01.593Z,1.25
2023-01-11T03:35:33.618Z,4.90
2023-01-11T03:38:06.706Z,1.60
2023-01-11T03:40:38.347Z,1.10
2023-01-11T03:43:11.894Z,0.77
2023-01-11T03:45:44.560Z,2.45
2023-01-11T03:48:15.919Z,0.90
2023-01-11T03:50:45.231Z,3.28
2023-01-11T03:53:16.573Z,2.20
2023-01-11T03:55:46.423Z,2.05
2023-01-11T03:58:14.067Z,1.80
2023-01-11T04:00:43.416Z,2.92
2023-01-11T04:03:12.686Z,1.10
2023-01-11T04:05:43.982Z,1.42
2023-01-11T04:08:11.943Z,1.23
2023-01-11T04:10:39.668Z,0.68
2023-01-11T04:13:07.240Z,1.17
2023-01-11T04:15:35.849Z,1.10
2023-01-11T04:18:05.833Z,1.25
2023-01-11T04:20:34.217Z,0.65
2023-01-11T04:23:02.000Z,1.23
2023-01-11T04:25:29.712Z,0.68
2023-01-11T04:27:57.421Z,1.45
2023-01-11T04:30:25.111Z,2.00
2023-01-11T04:32:52.850Z,1.80
2023-01-11T04:35:21.851Z,1.10
2023-01-11T04:37:51.159Z,0.68
2023-01-11T04:40:20.827Z,0.73
2023-01-11T04:42:47.725Z,0.57
2023-01-11T04:45:15.568Z,1.08
2023-01-11T04:47:43.291Z,1.13
2023-01-11T04:50:12.713Z,1.02
2023-01-11T04:52:41.969Z,0.77
2023-01-11T04:55:10.079Z,0.70
2023-01-11T04:57:37.909Z,0.40
2023-01-11T05:00:10.914Z,0.63
2023-01-11T05:02:38.619Z,1.42
2023-01-11T05:05:07.852Z,1.17
2023-01-11T05:07:35.855Z,1.58
2023-01-11T05:10:05.166Z,1.40
2023-01-11T05:12:32.728Z,0.77
2023-01-11T05:15:00.355Z,0.88
2023-01-11T05:17:27.971Z,2.92
2023-01-11T05:19:55.567Z,1.67
2023-01-11T05:22:23.240Z,0.88
2023-01-11T05:24:50.870Z,0.40
2023-01-11T05:27:19.869Z,0.30
2023-01-11T05:29:47.476Z,0.50
2023-01-11T05:32:15.127Z,0.70
2023-01-11T05:34:42.712Z,0.95
2023-01-11T05:37:10.309Z,0.80
2023-01-11T05:39:37.872Z,0.80
2023-01-11T05:42:05.924Z,1.67
2023-01-11T05:44:52.858Z,0.90
2023-01-11T05:47:20.485Z,0.63
2023-01-11T05:49:48.129Z,1.40
2023-01-11T05:52:16.093Z,0.80
2023-01-11T05:54:43.665Z,0.40
2023-01-11T05:57:11.982Z,1.00
2023-01-11T05:59:41.025Z,0.55
2023-01-11T06:02:08.750Z,0.90
2023-01-11T06:04:36.387Z,0.85
2023-01-11T06:07:04.228Z,0.50
2023-01-11T06:09:32.051Z,1.10
2023-01-11T06:11:59.652Z,2.17
2023-01-11T06:14:27.299Z,0.60
2023-01-11T06:16:56.832Z,1.40
2023-01-11T06:19:24.499Z,0.95
2023-01-11T06:21:52.160Z,0.70
2023-01-11T06:24:20.073Z,0.65
2023-01-11T06:26:47.669Z,1.27
2023-01-11T06:29:15.578Z,0.50
2023-01-11T06:31:43.210Z,0.60
2023-01-11T06:34:12.229Z,0.60
2023-01-11T06:36:40.008Z,0.73
2023-01-11T06:39:07.675Z,0.40
2023-01-11T06:41:35.283Z,2.63
2023-01-11T06:44:03.009Z,0.50
2023-01-11T06:46:30.797Z,1.13
2023-01-11T06:48:58.567Z,0.50
2023-01-11T06:51:27.560Z,0.50
2023-01-11T06:53:55.169Z,2.38
2023-01-11T06:56:23.618Z,1.33
2023-01-11T06:58:52.589Z,1.38
2023-01-11T07:01:20.514Z,1.50
2023-01-11T07:03:48.422Z,3.25
2023-01-11T07:06:16.050Z,1.00
2023-01-11T07:08:45.032Z,1.45
2023-01-11T07:11:13.109Z,1.00
2023-01-11T07:13:40.682Z,0.65
2023-01-11T07:16:08.750Z,1.63
2023-01-11T07:18:37.332Z,2.50
2023-01-11T07:21:05.164Z,1.13
2023-01-11T07:23:32.794Z,1.67
2023-01-11T07:26:01.846Z,1.58
2023-01-11T07:28:30.582Z,0.93
2023-01-11T07:30:59.777Z,0.85
2023-01-11T07:33:28.540Z,0.60
2023-01-11T07:35:56.446Z,1.48
2023-01-11T07:38:24.218Z,0.50
2023-01-11T07:40:53.006Z,1.38
2023-01-11T07:43:23.522Z,0.63
2023-01-11T07:45:52.763Z,0.40
2023-01-11T07:48:25.284Z,1.40
2023-01-11T07:50:53.928Z,0.80
2023-01-11T07:53:22.221Z,1.27
2023-01-11T07:55:49.864Z,0.73
2023-01-11T07:58:17.533Z,0.50
2023-01-11T08:00:46.799Z,0.63
2023-01-11T08:03:14.532Z,0.57
2023-01-11T08:05:42.268Z,3.17
2023-01-11T08:08:09.919Z,2.63
2023-01-11T08:10:38.387Z,1.55
2023-01-11T08:13:25.220Z,1.27
2023-01-11T08:15:54.331Z,0.90
2023-01-11T08:18:22.011Z,1.00
2023-01-11T08:20:53.027Z,2.22
2023-01-11T08:23:20.705Z,3.55
2023-01-11T08:25:48.763Z,1.58
2023-01-11T08:28:16.347Z,1.92
2023-01-11T08:30:44.353Z,2.33
2023-01-11T08:33:13.370Z,2.00
2023-01-11T08:35:41.154Z,1.10
2023-01-11T08:38:08.863Z,1.85
2023-01-11T08:40:36.944Z,2.13
2023-01-11T08:43:05.825Z,2.58
2023-01-11T08:45:34.107Z,0.50
2023-01-11T08:48:01.826Z,1.42
2023-01-11T08:50:30.785Z,1.08
2023-01-11T08:52:58.357Z,0.90
2023-01-11T08:55:26.041Z,4.10
2023-01-11T08:57:53.659Z,1.13
2023-01-11T09:00:21.525Z,0.88
2023-01-11T09:02:49.172Z,1.00
2023-01-11T09:05:18.357Z,2.90
2023-01-11T09:07:47.718Z,0.82
2023-01-11T09:10:15.593Z,0.80
2023-01-11T09:12:43.230Z,0.85
2023-01-11T09:15:11.809Z,1.55
2023-01-11T09:17:39.511Z,0.80
2023-01-11T09:20:08.175Z,2.10
2023-01-11T09:22:35.793Z,2.05
2023-01-11T09:25:05.466Z,1.77
2023-01-11T09:27:33.151Z,1.63
2023-01-11T09:30:01.538Z,0.75
2023-01-11T09:32:29.326Z,1.23
2023-01-11T09:34:58.126Z,1.13
2023-01-11T09:37:26.040Z,0.93
2023-01-11T09:39:53.624Z,0.70
2023-01-11T09:42:36.439Z,0.93
2023-01-11T09:45:11.462Z,2.05
2023-01-11T09:47:44.792Z,1.33
2023-01-11T09:50:17.761Z,7.07
2023-01-11T09:52:47.955Z,1.73
2023-01-11T09:55:22.922Z,1.98
2023-01-11T09:58:11.002Z,1.48
2023-01-11T10:00:52.130Z,2.38
2023-01-11T10:03:57.277Z,1.60
2023-01-11T10:06:29.645Z,1.15
2023-01-11T10:18:23.802Z,2.17
2023-01-11T10:18:32.625Z,1.75
2023-01-11T10:21:11.031Z,2.65
2023-01-11T10:23:47.330Z,1.48
2023-01-11T10:26:27.249Z,1.70
2023-01-11T10:29:21.939Z,1.50
2023-01-11T10:32:13.574Z,1.92
2023-01-11T10:34:59.895Z,2.35
2023-01-11T10:37:47.044Z,1.60
2023-01-11T10:40:35.131Z,2.33
2023-01-11T10:43:09.314Z,2.95
2023-01-11T10:45:43.420Z,1.98
2023-01-11T10:48:20.634Z,2.17
2023-01-11T10:50:55.467Z,2.20
2023-01-11T10:53:29.404Z,2.05
2023-01-11T10:56:05.406Z,2.13
2023-01-11T10:58:47.264Z,1.23
2023-01-11T11:01:28.433Z,1.85
2023-01-11T11:04:12.733Z,1.95
2023-01-11T11:06:45.750Z,2.85
2023-01-11T11:09:24.213Z,2.42
2023-01-11T11:11:56.225Z,3.92
2023-01-11T11:14:31.794Z,3.75
2023-01-11T11:17:08.649Z,5.00
2023-01-11T11:19:37.659Z,4.18
2023-01-11T11:22:05.283Z,4.47
2023-01-11T11:24:38.011Z,3.95
2023-01-11T11:29:43.069Z,2.78
2023-01-11T11:32:20.997Z,2.30
2023-01-11T11:34:51.756Z,1.67
2023-01-11T11:37:23.068Z,2.88
2023-01-11T11:39:52.613Z,1.70
2023-01-11T11:42:22.356Z,1.00
2023-01-11T11:45:15.994Z,1.70
2023-01-11T11:47:44.908Z,1.95
2023-01-11T11:50:43.017Z,1.17
2023-01-11T11:53:21.298Z,1.67
2023-01-11T11:55:49.084Z,2.53
2023-01-11T11:58:21.642Z,2.30
2023-01-11T12:00:50.956Z,2.08
2023-01-11T12:03:22.040Z,1.20
2023-01-11T12:05:53.372Z,1.50
2023-01-11T12:08:21.845Z,2.03
2023-01-11T12:10:53.279Z,2.20
2023-01-11T12:13:29.628Z,2.70
2023-01-11T12:15:58.365Z,1.60
2023-01-11T12:18:27.870Z,3.95
2023-01-11T12:20:56.982Z,1.73
2023-01-11T12:23:26.302Z,2.15
2023-01-11T12:26:32.966Z,5.88
2023-01-11T12:29:31.587Z,2.38
2023-01-11T12:32:25.098Z,1.40
2023-01-11T12:35:15.667Z,2.22
2023-01-11T12:38:08.651Z,2.03
2023-01-11T12:40:43.289Z,2.20
2023-01-11T12:43:32.984Z,2.55
2023-01-11T12:46:10.329Z,4.22
2023-01-11T12:48:53.429Z,2.72
2023-01-11T12:51:30.735Z,2.63
2023-01-11T12:54:20.758Z,2.90
2023-01-11T12:57:02.520Z,2.53
2023-01-11T12:59:48.694Z,4.05
2023-01-11T13:02:33.524Z,4.10
2023-01-11T13:05:10.663Z,4.15
2023-01-11T13:07:52.717Z,3.45
2023-01-11T13:10:33.605Z,3.20
2023-01-11T13:13:06.860Z,2.13
2023-01-11T13:15:44.996Z,2.75
2023-01-11T13:18:23.624Z,2.17
2023-01-11T13:21:01.635Z,1.77
2023-01-11T13:23:39.114Z,3.72
2023-01-11T13:26:17.933Z,1.80
2023-01-11T13:28:49.185Z,1.77
2023-01-11T13:31:17.510Z,1.63
2023-01-11T13:33:50.592Z,2.15
2023-01-11T13:36:23.906Z,4.35
2023-01-11T13:38:59.127Z,1.80
2023-01-11T13:41:33.839Z,2.78
2023-01-11T13:44:05.360Z,2.80
2023-01-11T13:46:44.900Z,2.92
2023-01-11T13:49:21.846Z,3.30
2023-01-11T13:51:55.057Z,4.57
2023-01-11T13:54:27.932Z,4.90
2023-01-11T13:57:01.885Z,5.45
2023-01-11T13:59:34.805Z,5.28
2023-01-11T14:02:12.986Z,2.65
2023-01-11T14:04:47.837Z,3.78
2023-01-11T14:07:29.026Z,2.88
2023-01-11T14:10:13.460Z,1.92
2023-01-11T14:13:01.901Z,2.65
2023-01-11T14:15:33.511Z,3.38
2023-01-11T14:18:31.393Z,4.38
2023-01-11T14:21:07.844Z,4.45
2023-01-11T14:23:50.219Z,3.67
2023-01-11T14:26:50.462Z,3.65
2023-01-11T14:29:42.774Z,3.58
2023-01-11T14:32:43.040Z,4.32
2023-01-11T14:35:39.558Z,2.72
2023-01-11T14:38:29.058Z,4.03
2023-01-11T14:41:32.884Z,3.28
2023-01-11T14:44:15.499Z,5.45
2023-01-11T14:46:58.991Z,6.40
2023-01-11T14:49:45.167Z,5.53
2023-01-11T14:52:18.567Z,4.82
2023-01-11T14:54:49.424Z,4.13
2023-01-11T14:57:38.025Z,5.40
2023-01-11T15:00:27.143Z,5.82
2023-01-11T15:03:41.918Z,4.30
2023-01-11T15:06:14.912Z,4.18
2023-01-11T15:08:46.115Z,4.40
2023-01-11T15:11:26.646Z,4.78
2023-01-11T15:13:58.127Z,7.72
2023-01-11T15:16:46.428Z,7.75
2023-01-11T15:19:27.389Z,7.47
2023-01-11T15:21:56.916Z,5.40
2023-01-11T15:24:27.983Z,1.75
2023-01-11T15:26:56.483Z,5.25
2023-01-11T15:29:27.825Z,9.45
2023-01-11T15:32:16.416Z,10.07
2023-01-11T15:34:47.995Z,4.30
2023-01-11T15:37:32.289Z,8.68
2023-01-11T15:40:04.069Z,7.47
2023-01-11T15:42:59.309Z,6.43
2023-01-11T15:46:12.628Z,9.90
2023-01-11T15:48:57.289Z,12.20
2023-01-11T15:51:45.596Z,11.82
2023-01-11T15:54:32.154Z,7.90
2023-01-11T15:57:22.967Z,6.30
2023-01-11T16:00:35.379Z,10.32
2023-01-11T16:03:44.925Z,10.25
2023-01-11T16:06:20.632Z,8.40
2023-01-11T16:08:57.883Z,9.18
2023-01-11T16:11:32.978Z,7.30
2023-01-11T16:14:19.539Z,6.70
2023-01-11T16:16:51.780Z,9.02
2023-01-11T16:19:23.578Z,9.90
2023-01-11T16:21:55.382Z,14.93
2023-01-11T16:24:28.824Z,7.77
2023-01-11T16:26:59.347Z,10.00
2023-01-11T16:29:30.918Z,7.13
2023-01-11T16:32:00.792Z,7.75
2023-01-11T16:34:29.755Z,10.32
2023-01-11T16:36:57.854Z,8.88
2023-01-11T16:39:30.421Z,7.30
2023-01-11T16:42:01.583Z,7.97
2023-01-11T16:44:41.759Z,7.45
2023-01-11T16:47:16.937Z,7.72
2023-01-11T16:49:48.928Z,5.18
2023-01-11T16:52:39.749Z,7.87
2023-01-11T16:55:35.990Z,7.47
2023-01-11T16:58:06.914Z,7.22
2023-01-11T17:00:38.130Z,6.15
2023-01-11T17:03:21.663Z,6.20
2023-01-11T17:05:58.806Z,12.40
2023-01-11T17:08:29.440Z,8.82
2023-01-11T17:11:02.164Z,9.77
2023-01-11T17:14:02.253Z,5.45
2023-01-11T17:16:34.630Z,7.18
2023-01-11T17:19:09.730Z,9.20
2023-01-11T17:21:37.454Z,7.95
2023-01-11T17:24:07.843Z,4.13
2023-01-11T17:26:42.675Z,4.97
2023-01-11T17:29:13.374Z,12.05
2023-01-11T17:31:41.651Z,13.20
2023-01-11T17:34:18.567Z,5.28
2023-01-11T17:36:46.655Z,13.52
2023-01-11T17:39:22.859Z,17.23
2023-01-11T17:42:09.595Z,6.07
2023-01-11T17:44:55.092Z,6.40
2023-01-11T17:47:23.553Z,7.00
2023-01-11T17:49:51.725Z,9.48
2023-01-11T17:52:22.189Z,8.90
2023-01-11T17:55:01.631Z,8.00
2023-01-11T17:57:31.619Z,6.55
2023-01-11T18:00:18.534Z,9.85
2023-01-11T18:02:47.059Z,9.30
2023-01-11T18:05:17.612Z,13.38
2023-01-11T18:07:49.652Z,7.63
2023-01-11T18:10:22.947Z,8.70
2023-01-11T18:12:52.857Z,10.25
2023-01-11T18:15:27.859Z,6.40
2023-01-11T18:17:57.650Z,3.85
2023-01-11T18:20:34.286Z,4.85
2023-01-11T18:23:05.400Z,5.90
2023-01-11T18:25:35.017Z,7.28
2023-01-11T18:28:28.003Z,5.63
2023-01-11T18:30:59.116Z,7.18
2023-01-11T18:33:29.295Z,3.67
2023-01-11T18:35:59.679Z,9.15
2023-01-11T18:38:29.864Z,7.85
2023-01-11T18:40:59.281Z,9.20
2023-01-11T18:43:30.466Z,6.38
2023-01-11T18:45:58.457Z,8.57
2023-01-11T18:48:26.077Z,6.75
2023-01-11T18:50:54.584Z,17.15
2023-01-11T18:53:23.677Z,9.23
2023-01-11T18:55:51.416Z,4.22
2023-01-11T18:58:19.024Z,4.07
2023-01-11T19:00:48.102Z,4.30
2023-01-11T19:05:48.387Z,9.25
2023-01-11T19:08:16.111Z,3.22
2023-01-11T19:10:43.818Z,5.45
2023-01-11T19:13:13.308Z,3.67
2023-01-11T19:15:41.364Z,7.53
2023-01-11T19:18:10.386Z,5.32
2023-01-11T19:20:39.797Z,5.78
2023-01-11T19:23:07.478Z,7.78
2023-01-11T19:25:35.188Z,5.60
2023-01-11T19:28:03.023Z,6.03
2023-01-11T19:30:30.700Z,7.35
2023-01-11T19:32:58.404Z,9.00
2023-01-11T19:35:27.399Z,10.40
2023-01-11T19:37:55.143Z,6.72
2023-01-11T19:40:22.970Z,9.23
2023-01-11T19:42:52.318Z,5.88
2023-01-11T19:45:20.026Z,10.50
2023-01-11T19:47:48.064Z,6.22
2023-01-11T19:50:16.978Z,8.32
2023-01-11T19:52:46.796Z,6.07
2023-01-11T19:55:14.419Z,7.00
2023-01-11T19:57:42.069Z,9.75
2023-01-11T20:00:13.494Z,8.80
2023-01-11T20:02:42.250Z,10.07
2023-01-11T20:05:10.461Z,7.75
2023-01-11T20:07:38.173Z,10.05
2023-01-11T20:10:08.218Z,9.50
2023-01-11T20:12:35.813Z,7.03
2023-01-11T20:15:03.578Z,8.48
2023-01-11T20:17:31.255Z,7.88
2023-01-11T20:19:58.952Z,7.30
2023-01-11T20:22:26.599Z,3.78
2023-01-11T20:24:56.979Z,6.60
2023-01-11T20:27:25.965Z,4.38
2023-01-11T20:29:53.626Z,7.20
2023-01-11T20:32:40.883Z,5.90
2023-01-11T20:35:10.054Z,6.50
2023-01-11T20:37:37.763Z,6.38
2023-01-11T20:40:06.482Z,8.15
2023-01-11T20:42:35.505Z,11.20
2023-01-11T20:45:03.223Z,10.10
2023-01-11T20:47:30.862Z,9.90
2023-01-11T20:49:58.467Z,11.65
2023-01-11T20:52:34.186Z,9.98
2023-01-11T20:55:04.958Z,10.27
2023-01-11T21:00:23.729Z,11.90
2023-01-11T21:02:51.440Z,7.38
2023-01-11T21:05:19.103Z,9.13
2023-01-11T21:07:50.763Z,6.75
2023-01-11T21:10:21.212Z,7.18
2023-01-11T21:12:52.653Z,9.75
2023-01-11T21:15:20.282Z,7.88
2023-01-11T21:17:47.898Z,9.40
2023-01-11T21:20:16.095Z,10.18
2023-01-11T21:22:44.297Z,14.88
2023-01-11T21:25:14.135Z,6.57
2023-01-11T21:27:41.760Z,6.68
2023-01-11T21:30:12.369Z,7.50
2023-01-11T21:32:47.036Z,6.93
2023-01-11T21:35:14.821Z,6.45
2023-01-11T21:37:42.515Z,5.22
2023-01-11T21:40:11.782Z,6.10
2023-01-11T21:42:39.388Z,5.45
2023-01-11T21:45:08.488Z,5.38
2023-01-11T21:47:39.582Z,7.07
2023-01-11T21:50:09.054Z,6.88
2023-01-11T21:52:37.287Z,6.20
2023-01-11T21:55:05.308Z,7.57
2023-01-11T21:57:32.991Z,4.43
2023-01-11T22:00:00.638Z,6.38
2023-01-11T22:02:28.303Z,3.92
2023-01-11T22:04:58.581Z,8.05
2023-01-11T22:07:27.177Z,3.40
2023-01-11T22:10:04.596Z,8.25
2023-01-11T22:12:34.285Z,6.00
2023-01-11T22:15:01.965Z,7.65
2023-01-11T22:17:29.612Z,5.95
2023-01-11T22:19:58.597Z,4.80
2023-01-11T22:22:29.175Z,4.40
2023-01-11T22:24:56.816Z,6.30
2023-01-11T22:27:24.565Z,8.25
2023-01-11T22:29:52.261Z,4.88
2023-01-11T22:32:19.888Z,7.03
2023-01-11T22:34:47.721Z,5.63
2023-01-11T22:37:16.636Z,7.00
2023-01-11T22:39:45.481Z,4.43
2023-01-11T22:42:13.279Z,4.78
2023-01-11T22:44:40.899Z,8.20
2023-01-11T22:47:08.550Z,5.85
2023-01-11T22:49:36.213Z,6.63
2023-01-11T22:52:03.799Z,7.80
2023-01-11T22:54:32.762Z,5.45
2023-01-11T22:57:00.374Z,9.18
2023-01-11T22:59:30.830Z,4.10
2023-01-11T23:01:59.658Z,7.03
2023-01-11T23:04:27.315Z,7.65
2023-01-11T23:06:55.077Z,6.35
2023-01-11T23:09:22.748Z,9.63
2023-01-11T23:12:09.297Z,7.40
2023-01-11T23:14:36.901Z,8.75
2023-01-11T23:17:06.731Z,7.30
2023-01-11T23:19:35.696Z,6.13
2023-01-11T23:22:03.453Z,6.47
2023-01-11T23:24:31.257Z,4.13
2023-01-11T23:27:00.615Z,5.30
2023-01-11T23:29:28.320Z,8.23
2023-01-11T23:31:58.177Z,3.95
2023-01-11T23:34:25.920Z,8.02
2023-01-11T23:36:53.557Z,6.43
2023-01-11T23:39:21.371Z,8.13
2023-01-11T23:42:09.541Z,6.15
2023-01-11T23:44:38.516Z,10.32
2023-01-11T23:47:25.019Z,4.53
2023-01-11T23:49:54.508Z,2.58
2023-01-11T23:52:24.487Z,3.10
2023-01-11T23:54:52.450Z,7.03
2023-01-11T23:57:23.821Z,5.18
2023-01-11T23:59:55.514Z,6.63
